Time;durP1;ratioP1;P1;durP2;ratioP2;P2;SDS_P1;SDS_P2;PMS_P1;PMS_P2;Temp;Humidity;BMP_temperature;BMP_pressure;BME280_temperature;BME280_humidity;BME280_pressure;Samples;Min_cycle;Max_cycle;Signal;HPM_P1;HPM_P2
2022/03/28 00:01:49;;;;;;;;;28.00;26.67;;;;;17.17;32.31;101746.16;5026293;28;45488;-62
2022/03/28 00:04:14;;;;;;;;;36.33;33.00;;;;;17.14;32.20;101740.97;5035619;28;45535;-61
2022/03/28 00:06:40;;;;;;;;;36.00;32.67;;;;;17.10;33.03;101726.94;5025165;28;45575;-61
2022/03/28 00:09:05;;;;;;;;;34.67;30.33;;;;;17.12;32.44;101734.88;5023762;28;46444;-58
2022/03/28 00:11:32;;;;;;;;;33.33;31.33;;;;;17.07;33.22;101720.91;5017478;28;45478;-62
2022/03/28 00:13:57;;;;;;;;;40.00;32.00;;;;;17.08;33.07;101725.28;5027922;28;45584;-61
2022/03/28 00:16:23;;;;;;;;;31.67;30.33;;;;;17.05;33.29;101726.28;5024999;28;45730;-60
2022/03/28 00:18:48;;;;;;;;;35.67;33.00;;;;;17.04;32.88;101718.41;5018887;28;46160;-62
2022/03/28 00:21:13;;;;;;;;;36.33;32.00;;;;;17.02;32.97;101722.91;5023799;28;45426;-62
2022/03/28 00:23:39;;;;;;;;;38.33;32.33;;;;;17.03;32.93;101722.81;5037775;28;45404;-62
2022/03/28 00:26:04;;;;;;;;;34.00;31.00;;;;;16.98;33.74;101715.06;5031058;28;45594;-61
2022/03/28 00:28:30;;;;;;;;;39.67;34.33;;;;;16.99;34.16;101715.94;5026256;28;45801;-59
2022/03/28 00:30:55;;;;;;;;;35.00;31.00;;;;;16.93;33.95;101711.75;5017060;28;45419;-59
2022/03/28 00:33:20;;;;;;;;;37.33;32.67;;;;;16.93;33.89;101709.09;5024028;28;45617;-61
2022/03/28 00:35:46;;;;;;;;;34.67;31.00;;;;;16.92;34.37;101709.16;5017900;28;45440;-61
2022/03/28 00:38:11;;;;;;;;;38.67;33.00;;;;;16.90;33.90;101703.94;5017272;28;45565;-62
2022/03/28 00:40:37;;;;;;;;;30.00;30.00;;;;;16.88;34.96;101702.25;5017284;28;45461;-61
2022/03/28 00:43:06;;;;;;;;;32.00;28.67;;;;;16.83;34.93;101696.28;5017516;28;45573;-62
2022/03/28 00:45:33;;;;;;;;;38.33;32.67;;;;;16.84;35.73;101700.66;5017593;28;45657;-61
2022/03/28 00:48:00;;;;;;;;;33.00;31.33;;;;;16.80;35.20;101699.09;5017285;28;45384;-62
2022/03/28 00:50:28;;;;;;;;;30.67;28.67;;;;;16.80;35.74;101699.94;5017062;28;45402;-60
2022/03/28 00:52:54;;;;;;;;;31.67;29.00;;;;;16.76;35.63;101693.88;5023404;28;45495;-62
2022/03/28 00:55:20;;;;;;;;;35.33;31.00;;;;;16.76;36.44;101699.19;5017411;28;45477;-62
2022/03/28 00:57:45;;;;;;;;;31.67;30.67;;;;;16.76;36.72;101693.00;5024610;28;45461;-60
2022/03/28 01:00:11;;;;;;;;;30.00;27.67;;;;;16.75;36.48;101696.59;5017063;28;45419;-58
2022/03/28 01:02:38;;;;;;;;;32.67;31.00;;;;;16.71;36.37;101695.88;5035052;28;45446;-62
2022/03/28 01:05:04;;;;;;;;;28.00;27.00;;;;;16.68;36.46;101684.50;5031332;28;45485;-59
2022/03/28 01:07:29;;;;;;;;;33.00;30.00;;;;;16.68;37.11;101688.00;5016690;28;47276;-62
2022/03/28 01:09:58;;;;;;;;;28.33;24.33;;;;;16.71;36.86;101689.66;5028482;28;45786;-62
2022/03/28 01:12:25;;;;;;;;;38.00;33.00;;;;;16.64;37.34;101669.63;5021371;28;45435;-59
2022/03/28 01:14:51;;;;;;;;;29.33;29.33;;;;;16.58;37.04;101660.13;5017705;28;45599;-62
2022/03/28 01:20:01;;;;;;;;;26.67;26.33;;;;;16.65;36.38;101671.34;5016299;28;45447;-60
2022/03/28 01:22:26;;;;;;;;;34.67;31.00;;;;;16.60;36.82;101660.06;5027584;28;45464;-62
2022/03/28 01:24:58;;;;;;;;;31.67;30.00;;;;;16.61;36.80;101667.97;5035181;28;45285;-63
2022/03/28 01:27:24;;;;;;;;;35.00;30.67;;;;;16.65;36.66;101668.69;5022953;28;46248;-60
2022/03/28 01:29:50;;;;;;;;;37.33;31.00;;;;;16.62;37.24;101663.50;5019688;28;45483;-63
2022/03/28 01:32:15;;;;;;;;;37.00;32.33;;;;;16.62;36.52;101667.03;5016580;28;45435;-61
2022/03/28 01:34:41;;;;;;;;;37.67;33.00;;;;;16.59;36.90;101664.50;5016494;28;45505;-63
2022/03/28 01:37:09;;;;;;;;;34.00;31.00;;;;;16.59;36.37;101669.81;5016290;28;45527;-60
2022/03/28 01:39:34;;;;;;;;;34.33;30.33;;;;;16.56;36.97;101662.00;5025386;28;45367;-63
2022/03/28 01:42:00;;;;;;;;;36.00;31.00;;;;;16.51;36.67;101656.88;5018581;28;45308;-61
2022/03/28 01:44:26;;;;;;;;;30.33;28.33;;;;;16.49;37.24;101653.41;5029212;28;45494;-61
2022/03/28 01:46:52;;;;;;;;;40.33;33.00;;;;;16.50;36.53;101654.31;5025840;28;45462;-64
2022/03/28 01:49:19;;;;;;;;;30.33;25.67;;;;;16.47;36.94;101655.28;5023531;28;45598;-62
2022/03/28 01:51:46;;;;;;;;;29.00;27.00;;;;;16.42;36.98;101649.31;5034345;28;45486;-63
2022/03/28 01:54:12;;;;;;;;;27.67;27.00;;;;;16.42;36.71;101646.66;5016268;28;45597;-61
2022/03/28 01:56:39;;;;;;;;;36.33;31.00;;;;;16.38;37.10;101639.75;5016022;28;46243;-62
2022/03/28 01:59:06;;;;;;;;;42.50;34.75;;;;;16.37;37.35;101643.34;5015868;28;45589;-62
2022/03/28 02:01:32;;;;;;;;;34.33;30.33;;;;;16.39;37.70;101648.56;5024250;28;45366;-61
2022/03/28 02:03:58;;;;;;;;;28.33;27.00;;;;;16.35;37.87;101639.88;5022508;28;45529;-60
2022/03/28 02:06:24;;;;;;;;;34.67;31.00;;;;;16.38;38.01;101646.84;5015164;28;46227;-61
2022/03/28 02:08:50;;;;;;;;;34.67;32.67;;;;;16.32;37.32;101643.53;5020005;28;45621;-60
2022/03/28 02:11:21;;;;;;;;;35.33;32.67;;;;;16.35;37.97;101647.84;5015331;28;45532;-61
2022/03/28 02:13:47;;;;;;;;;32.00;27.00;;;;;16.28;38.13;101638.41;5033209;28;45369;-62
2022/03/28 02:16:13;;;;;;;;;36.00;32.00;;;;;16.31;37.28;101646.25;5018736;28;45642;-62
2022/03/28 02:18:41;;;;;;;;;31.00;28.33;;;;;16.29;38.02;101645.47;5015627;28;45789;-59
2022/03/28 02:21:07;;;;;;;;;31.67;31.33;;;;;16.26;37.78;101641.13;5021434;28;45439;-60
2022/03/28 02:23:32;;;;;;;;;32.00;28.33;;;;;16.23;38.71;101635.97;5015751;28;45242;-61
2022/03/28 02:25:58;;;;;;;;;33.67;31.67;;;;;16.19;38.25;101633.50;5033274;28;46003;-62
2022/03/28 02:28:24;;;;;;;;;34.67;30.00;;;;;16.21;38.52;101639.59;5015975;28;45506;-60
2022/03/28 02:30:54;;;;;;;;;37.33;32.67;;;;;16.23;38.38;101641.28;5024959;28;45413;-62
2022/03/28 02:33:19;;;;;;;;;32.67;31.00;;;;;16.13;39.38;101624.00;5034838;28;45525;-60
2022/03/28 02:35:45;;;;;;;;;42.33;36.33;;;;;16.22;39.46;101642.19;5025680;28;46044;-60
2022/03/28 02:38:10;;;;;;;;;39.75;34.75;;;;;16.20;40.05;101638.75;5016492;28;51412;-61
2022/03/28 02:40:36;;;;;;;;;40.25;36.75;;;;;16.15;40.26;101629.22;5015462;28;45675;-60
2022/03/28 02:43:03;;;;;;;;;38.00;33.33;;;;;16.16;40.87;101629.19;5014668;28;45549;-61
2022/03/28 02:45:36;;;;;;;;;46.75;37.50;;;;;16.13;40.63;101629.31;5025935;28;45390;-60
2022/03/28 02:48:03;;;;;;;;;37.75;33.50;;;;;16.12;40.36;101632.91;5015184;28;45624;-63
2022/03/28 02:50:30;;;;;;;;;38.67;33.00;;;;;16.07;41.10;101619.81;5015209;28;45352;-59
2022/03/28 02:52:56;;;;;;;;;42.67;35.67;;;;;16.10;41.37;101626.78;5017141;28;45486;-60
2022/03/28 02:55:22;;;;;;;;;34.00;32.00;;;;;16.04;41.82;101614.66;5020339;28;46018;-61
2022/03/28 02:57:47;;;;;;;;;35.00;31.33;;;;;16.05;42.11;101603.09;5019561;28;45713;-62
2022/03/28 03:00:13;;;;;;;;;39.00;33.00;;;;;16.07;41.92;101603.03;5030099;28;45502;-61
2022/03/28 03:02:39;;;;;;;;;42.33;36.67;;;;;16.09;42.32;101611.78;5020681;28;45526;-59
2022/03/28 03:05:06;;;;;;;;;42.67;36.00;;;;;16.02;42.48;101597.91;5014952;28;46501;-60
2022/03/28 03:07:32;;;;;;;;;35.00;31.67;;;;;16.05;42.54;101599.59;5015173;28;45363;-59
2022/03/28 03:09:57;;;;;;;;;38.67;34.33;;;;;16.04;43.28;101603.16;5015163;28;45908;-61
2022/03/28 03:12:22;;;;;;;;;37.25;33.25;;;;;16.03;43.04;101596.13;5017945;28;45642;-59
2022/03/28 03:14:48;;;;;;;;;36.67;32.33;;;;;16.00;43.59;101594.47;5033411;28;46450;-60
2022/03/28 03:17:13;;;;;;;;;36.75;34.75;;;;;16.01;43.36;101605.94;5032733;28;45512;-62
2022/03/28 03:19:40;;;;;;;;;37.25;33.00;;;;;15.97;44.19;101591.94;5024525;28;45377;-62
2022/03/28 03:22:06;;;;;;;;;43.50;37.75;;;;;15.96;44.06;101590.22;5025356;28;45550;-60
2022/03/28 03:24:32;;;;;;;;;36.75;32.00;;;;;15.96;43.94;101598.19;5014707;28;45472;-60
2022/03/28 03:26:57;;;;;;;;;39.50;36.25;;;;;15.95;43.76;101591.13;5014793;28;45441;-61
2022/03/28 03:29:22;;;;;;;;;45.25;37.50;;;;;15.94;44.39;101585.91;5026424;28;45382;-60
2022/03/28 03:31:48;;;;;;;;;37.25;32.75;;;;;15.93;44.46;101584.16;5030619;28;45593;-60
2022/03/28 03:34:13;;;;;;;;;45.00;36.75;;;;;15.91;44.69;101584.25;5029918;28;45465;-60
2022/03/28 03:36:39;;;;;;;;;40.50;34.75;;;;;15.90;45.02;101587.81;5031505;28;45562;-62
2022/03/28 03:39:04;;;;;;;;;45.75;38.50;;;;;15.89;45.29;101586.09;5014959;28;45493;-61
2022/03/28 03:41:30;;;;;;;;;45.75;35.25;;;;;15.86;44.93;101586.22;5016612;28;45594;-59
2022/03/28 03:43:55;;;;;;;;;38.25;34.25;;;;;15.85;45.79;101592.44;5014385;28;46152;-61
2022/03/28 03:46:21;;;;;;;;;44.00;37.50;;;;;15.83;45.58;101583.69;5017035;28;45494;-59
2022/03/28 03:48:49;;;;;;;;;37.75;34.50;;;;;15.80;44.31;101581.19;5030787;28;45662;-60
2022/03/28 03:51:14;;;;;;;;;40.75;34.75;;;;;15.81;45.23;101580.25;5019852;28;45581;-60
2022/03/28 03:53:40;;;;;;;;;38.00;34.25;;;;;15.78;44.70;101575.94;5018029;28;45471;-59
2022/03/28 03:56:05;;;;;;;;;42.75;36.25;;;;;15.74;44.06;101571.66;5016589;28;46206;-62
2022/03/28 03:58:30;;;;;;;;;43.25;37.75;;;;;15.79;45.10;101580.28;5032040;28;45474;-61
2022/03/28 04:00:56;;;;;;;;;38.75;34.00;;;;;15.80;44.04;101584.69;5018093;28;45430;-60
2022/03/28 04:03:23;;;;;;;;;37.00;33.33;;;;;15.81;44.23;101588.19;5017015;28;46427;-58
2022/03/28 04:05:48;;;;;;;;;35.25;32.00;;;;;15.81;44.33;101580.25;5018406;28;45454;-60
2022/03/28 04:08:14;;;;;;;;;36.25;34.00;;;;;15.81;44.07;101574.94;5018566;28;45541;-62
2022/03/28 04:10:39;;;;;;;;;39.75;34.75;;;;;15.81;44.78;101577.59;5017704;28;45577;-61
2022/03/28 04:13:04;;;;;;;;;46.00;36.25;;;;;15.82;44.56;101576.66;5016982;28;45971;-59
2022/03/28 04:15:30;;;;;;;;;42.00;35.00;;;;;15.80;44.54;101581.19;5017892;28;45375;-62
2022/03/28 04:17:55;;;;;;;;;44.25;38.00;;;;;15.78;45.42;101575.94;5027431;28;45460;-61
2022/03/28 04:20:21;;;;;;;;;41.50;36.75;;;;;15.75;45.67;101578.72;5032116;28;45431;-63
2022/03/28 04:22:47;;;;;;;;;41.75;35.00;;;;;15.72;45.66;101576.19;5028048;28;45591;-59
2022/03/28 04:25:14;;;;;;;;;48.25;39.25;;;;;15.73;46.27;101583.22;5034115;28;45577;-62
2022/03/28 04:27:41;;;;;;;;;40.75;35.75;;;;;15.68;46.10;101582.50;5028301;28;45492;-61
2022/03/28 04:30:11;;;;;;;;;43.25;37.75;;;;;15.71;45.70;101587.69;5017797;28;45650;-61
2022/03/28 04:32:36;;;;;;;;;42.50;37.00;;;;;15.67;45.80;101578.13;5016965;28;45412;-61
2022/03/28 04:35:04;;;;;;;;;37.25;34.25;;;;;15.70;46.67;101587.78;5017401;28;45422;-60
2022/03/28 04:37:35;;;;;;;;;43.75;36.75;;;;;15.68;46.11;101583.38;5027294;28;45490;-60
2022/03/28 04:40:02;;;;;;;;;46.75;39.00;;;;;15.63;46.19;101571.22;5017877;28;45537;-59
2022/03/28 04:42:27;;;;;;;;;48.50;39.75;;;;;15.70;46.25;101585.13;5017233;28;45410;-59
2022/03/28 04:44:53;;;;;;;;;40.50;35.25;;;;;15.67;47.33;101579.00;5033862;28;45529;-60
2022/03/28 04:47:18;;;;;;;;;42.00;36.50;;;;;15.69;46.50;101581.63;5033143;28;45352;-59
2022/03/28 04:49:43;;;;;;;;;43.75;38.00;;;;;15.67;46.70;101576.34;5017343;28;45410;-62
2022/03/28 04:52:09;;;;;;;;;47.25;38.00;;;;;15.66;47.10;101579.03;5017394;28;45391;-60
2022/03/28 04:54:36;;;;;;;;;44.25;35.25;;;;;15.65;46.93;101574.66;5028971;28;45506;-60
2022/03/28 04:57:04;;;;;;;;;52.25;38.50;;;;;15.64;47.07;101565.84;5015738;28;45588;-61
2022/03/28 04:59:31;;;;;;;;;47.25;38.00;;;;;15.64;46.94;101570.31;5016725;28;45438;-63
2022/03/28 05:01:57;;;;;;;;;39.25;34.75;;;;;15.63;47.94;101573.88;5025076;28;46118;-63
2022/03/28 05:04:22;;;;;;;;;45.00;38.00;;;;;15.63;47.71;101563.25;5036861;28;45501;-58
2022/03/28 05:06:47;;;;;;;;;49.75;38.50;;;;;15.60;48.46;101564.25;5027452;28;45858;-60
2022/03/28 05:09:13;;;;;;;;;53.25;41.75;;;;;15.57;48.15;101561.72;5035407;28;45402;-61
2022/03/28 05:11:38;;;;;;;;;46.75;38.50;;;;;15.62;47.63;101564.19;5019804;28;45497;-62
2022/03/28 05:14:07;;;;;;;;;40.00;35.25;;;;;15.61;47.87;101563.34;5016867;28;45404;-62
2022/03/28 05:16:32;;;;;;;;;47.25;39.75;;;;;15.61;47.44;101557.19;5027448;28;45530;-60
2022/03/28 05:18:58;;;;;;;;;48.00;41.00;;;;;15.61;47.99;101563.34;5023352;28;45624;-60
2022/03/28 05:21:23;;;;;;;;;41.25;36.75;;;;;15.57;48.13;101558.22;5031520;28;45430;-62
2022/03/28 05:23:48;;;;;;;;;47.25;38.50;;;;;15.56;48.50;101556.50;5036443;28;45467;-59
2022/03/28 05:26:13;;;;;;;;;47.75;37.75;;;;;15.54;48.31;101556.53;5016979;28;45553;-61
2022/03/28 05:28:39;;;;;;;;;46.50;38.00;;;;;15.55;48.04;101560.91;5026255;28;45424;-61
2022/03/28 05:31:04;;;;;;;;;43.50;38.00;;;;;15.50;48.49;101557.63;5023615;28;46191;-62
2022/03/28 05:33:30;;;;;;;;;52.50;43.00;;;;;15.54;49.40;101564.50;5016598;28;45471;-61
2022/03/28 05:35:56;;;;;;;;;47.00;37.75;;;;;15.51;48.73;101559.31;5031035;28;45431;-58
2022/03/28 05:38:22;;;;;;;;;47.00;36.75;;;;;15.44;49.27;101561.34;5019455;28;45436;-61
2022/03/28 05:40:48;;;;;;;;;48.25;38.25;;;;;15.47;48.30;101563.00;5018888;28;45575;-60
2022/03/28 05:43:13;;;;;;;;;52.75;40.50;;;;;15.47;48.79;101565.66;5016788;28;45474;-58
2022/03/28 05:45:39;;;;;;;;;47.00;38.25;;;;;15.47;49.10;101563.00;5018651;28;45518;-59
2022/03/28 05:48:04;;;;;;;;;48.25;38.50;;;;;15.48;49.09;101562.09;5016606;28;45479;-62
2022/03/28 05:50:30;;;;;;;;;50.25;40.00;;;;;15.48;49.24;101559.47;5018052;28;46368;-61
2022/03/28 05:52:55;;;;;;;;;47.75;40.00;;;;;15.47;49.23;101549.75;5028102;28;45545;-60
2022/03/28 05:55:21;;;;;;;;;48.50;38.75;;;;;15.48;48.14;101554.16;5026510;28;45474;-61
2022/03/28 05:57:47;;;;;;;;;43.00;38.00;;;;;15.50;49.45;101562.03;5031163;28;45673;-64
2022/03/28 06:00:14;;;;;;;;;49.25;41.00;;;;;15.41;48.76;101540.28;5016238;28;46187;-61
2022/03/28 06:02:41;;;;;;;;;40.75;35.00;;;;;15.48;49.50;101556.81;5023451;28;45609;-61
2022/03/28 06:05:06;;;;;;;;;45.25;39.00;;;;;15.48;49.52;101556.81;5031114;28;45444;-60
2022/03/28 06:07:33;;;;;;;;;49.75;38.25;;;;;15.48;49.18;101556.81;5026964;28;45444;-60
2022/03/28 06:09:58;;;;;;;;;46.50;38.50;;;;;15.50;49.11;101551.44;5031473;28;48129;-60
2022/03/28 06:12:24;;;;;;;;;44.75;38.00;;;;;15.51;49.57;101561.97;5015697;28;45426;-59
2022/03/28 06:14:49;;;;;;;;;46.25;37.75;;;;;15.51;49.17;101548.72;5017046;28;45440;-61
2022/03/28 06:17:26;;;;;;;;;50.50;40.50;;;;;15.53;48.82;101552.19;5016055;28;45448;-60
2022/03/28 06:19:52;;;;;;;;;46.00;38.25;;;;;15.53;49.02;101554.84;5031901;28;45478;-62
2022/03/28 06:22:21;;;;;;;;;46.00;39.75;;;;;15.54;49.63;101550.38;5022320;28;45537;-63
2022/03/28 06:24:47;;;;;;;;;48.50;38.50;;;;;15.54;49.22;101543.28;5033275;28;45489;-62
2022/03/28 06:27:13;;;;;;;;;43.00;37.00;;;;;15.52;49.48;101545.13;5021918;28;45696;-61
2022/03/28 06:29:38;;;;;;;;;51.25;42.00;;;;;15.54;49.47;101545.09;5019404;28;46108;-64
2022/03/28 06:32:04;;;;;;;;;51.75;40.75;;;;;15.53;49.82;101552.19;5017872;28;45526;-59
2022/03/28 06:34:30;;;;;;;;;51.75;40.50;;;;;15.53;49.84;101549.53;5030373;28;45418;-60
2022/03/28 06:36:56;;;;;;;;;50.25;41.50;;;;;15.46;49.82;101543.59;5016142;28;45509;-61
2022/03/28 06:39:21;;;;;;;;;50.00;41.25;;;;;15.52;49.92;101550.44;5015408;28;45408;-59
2022/03/28 06:41:47;;;;;;;;;55.50;42.50;;;;;15.51;49.79;101556.69;5020618;28;45682;-60
2022/03/28 06:44:12;;;;;;;;;51.50;41.00;;;;;15.50;50.66;101548.78;5015130;28;45483;-61
2022/03/28 06:46:40;;;;;;;;;52.25;43.50;;;;;15.49;49.48;101547.91;5015298;28;45549;-60
2022/03/28 06:49:05;;;;;;;;;47.75;39.25;;;;;15.50;49.96;101549.66;5015237;28;45446;-61
2022/03/28 06:51:32;;;;;;;;;48.75;38.75;;;;;15.51;50.51;101550.50;5020533;28;45415;-60
2022/03/28 06:53:58;;;;;;;;;50.25;41.75;;;;;15.50;50.65;101544.34;5033780;28;45645;-60
2022/03/28 06:56:23;;;;;;;;;54.25;41.75;;;;;15.48;50.34;101546.19;5035226;28;45354;-59
2022/03/28 06:58:48;;;;;;;;;48.00;39.25;;;;;15.47;50.47;101544.44;5027770;28;46696;-61
2022/03/28 07:01:14;;;;;;;;;50.25;40.50;;;;;15.42;49.89;101535.81;5029804;28;45422;-60
2022/03/28 07:03:39;;;;;;;;;50.00;40.50;;;;;15.48;49.92;101540.91;5014889;28;45785;-60
2022/03/28 07:06:05;;;;;;;;;51.50;41.00;;;;;15.51;49.54;101539.91;5014897;28;45411;-60
2022/03/28 07:08:30;;;;;;;;;52.00;40.75;;;;;15.52;50.62;101536.31;5014787;28;45998;-61
2022/03/28 07:10:56;;;;;;;;;47.50;41.00;;;;;15.53;50.35;101536.28;5015440;28;45331;-59
2022/03/28 07:13:22;;;;;;;;;54.50;44.50;;;;;15.53;49.68;101533.63;5014812;28;45489;-60
2022/03/28 07:15:48;;;;;;;;;53.25;43.00;;;;;15.56;50.51;101532.63;5014860;28;45461;-60
2022/03/28 07:18:13;;;;;;;;;56.50;43.75;;;;;15.52;49.68;101528.38;5013419;28;46912;-60
2022/03/28 07:20:43;;;;;;;;;53.50;42.50;;;;;15.52;50.30;101525.72;5028430;28;45590;-61
2022/03/28 07:23:13;;;;;;;;;56.50;46.50;;;;;15.57;50.17;101540.50;5018102;28;45570;-60
2022/03/28 07:25:39;;;;;;;;;49.75;42.75;;;;;15.55;50.27;101534.41;5029524;28;45458;-62
2022/03/28 07:28:09;;;;;;;;;58.00;45.00;;;;;15.53;50.55;101527.44;5016675;28;45423;-58
2022/03/28 07:30:37;;;;;;;;;48.00;40.75;;;;;15.53;49.92;101524.78;5020449;28;45375;-59
2022/03/28 07:33:06;;;;;;;;;54.00;42.75;;;;;15.58;49.73;101531.66;5028289;28;45555;-60
2022/03/28 07:35:34;;;;;;;;;51.25;43.00;;;;;15.58;50.74;101534.28;5018336;28;45595;-60
2022/03/28 07:37:59;;;;;;;;;56.25;46.00;;;;;15.58;49.84;101536.94;5017646;28;45463;-59
2022/03/28 07:40:25;;;;;;;;;56.00;46.50;;;;;15.59;50.57;101528.06;5017794;28;45490;-60
2022/03/28 07:42:53;;;;;;;;;55.50;44.50;;;;;15.60;49.58;101529.78;5018170;28;45530;-60
2022/03/28 07:45:19;;;;;;;;;53.25;43.50;;;;;15.62;49.81;101527.94;5016611;28;45556;-60
2022/03/28 07:47:44;;;;;;;;;54.75;45.75;;;;;15.64;49.76;101525.22;5017405;28;45457;-61
2022/03/28 07:50:11;;;;;;;;;54.50;45.50;;;;;15.63;49.61;101519.03;5020128;28;45589;-61
2022/03/28 07:52:37;;;;;;;;;47.50;39.00;;;;;15.72;50.12;101524.94;5017586;28;45478;-60
2022/03/28 07:55:04;;;;;;;;;55.75;46.00;;;;;15.76;50.39;101526.53;5017792;28;45593;-60
2022/03/28 07:57:29;;;;;;;;;57.75;46.25;;;;;15.71;50.19;101510.78;5018479;28;46339;-59
2022/03/28 07:59:55;;;;;;;;;54.25;44.00;;;;;15.82;50.40;101520.94;5020134;28;45437;-60
2022/03/28 08:02:20;;;;;;;;;55.25;45.00;;;;;15.86;49.97;101525.22;5020264;28;45529;-59
2022/03/28 08:04:46;;;;;;;;;53.75;43.75;;;;;15.89;48.81;101519.78;5017845;28;45707;-60
2022/03/28 08:07:12;;;;;;;;;54.75;45.00;;;;;15.92;49.83;101519.63;5017732;28;45929;-61
2022/03/28 08:09:39;;;;;;;;;54.75;45.00;;;;;15.95;49.40;101521.28;5017729;28;45482;-60
2022/03/28 08:12:06;;;;;;;;;52.25;43.25;;;;;15.94;49.26;101519.59;5017623;28;45476;-61
2022/03/28 08:14:32;;;;;;;;;55.00;44.25;;;;;15.96;49.31;101528.31;5017736;28;45443;-61
2022/03/28 08:16:58;;;;;;;;;57.50;45.25;;;;;15.96;49.96;101518.59;5020077;28;46165;-60
2022/03/28 08:19:24;;;;;;;;;58.25;44.25;;;;;15.98;49.25;101522.00;5020523;28;45604;-61
2022/03/28 08:21:50;;;;;;;;;54.50;43.25;;;;;15.98;49.70;101516.72;5027394;28;45504;-60
2022/03/28 08:24:15;;;;;;;;;54.75;45.00;;;;;16.03;49.36;101522.69;5017288;28;45709;-58
2022/03/28 08:26:41;;;;;;;;;52.50;43.00;;;;;16.06;48.89;101524.34;5017265;28;46228;-58
2022/03/28 08:29:06;;;;;;;;;48.50;42.00;;;;;16.10;48.93;101523.28;5021176;28;45383;-59
2022/03/28 08:31:32;;;;;;;;;55.00;43.50;;;;;16.10;49.44;101513.53;5035531;28;45387;-60
2022/03/28 08:33:58;;;;;;;;;50.25;41.75;;;;;16.12;48.83;101498.41;5027658;28;45474;-57
2022/03/28 08:36:23;;;;;;;;;59.00;47.75;;;;;16.20;48.77;101503.38;5031623;28;45609;-59
2022/03/28 08:38:49;;;;;;;;;53.25;42.25;;;;;16.27;48.66;101506.63;5030779;28;45502;-60
2022/03/28 08:41:18;;;;;;;;;50.25;41.00;;;;;16.29;48.46;101496.78;5018676;28;45478;-60
2022/03/28 08:43:43;;;;;;;;;51.00;42.50;;;;;16.36;48.35;101506.19;5017121;28;45369;-60
2022/03/28 08:46:10;;;;;;;;;54.75;41.50;;;;;16.36;48.02;101495.56;5020040;28;47066;-60
2022/03/28 08:48:40;;;;;;;;;49.25;41.50;;;;;16.43;47.40;101494.38;5015613;28;45608;-59
2022/03/28 08:51:08;;;;;;;;;36.50;30.25;;;;;16.48;47.64;101500.34;5022308;28;45541;-59
2022/03/28 08:53:34;;;;;;;;;52.75;42.50;;;;;16.51;46.62;101496.69;5024690;28;45349;-62
2022/03/28 08:56:00;;;;;;;;;41.25;36.00;;;;;16.50;46.78;101493.16;5025919;28;45373;-61
2022/03/28 08:58:25;;;;;;;;;49.25;42.25;;;;;16.52;46.60;101496.63;5030012;28;45513;-60
2022/03/28 09:00:51;;;;;;;;;48.50;41.00;;;;;16.55;46.80;101504.44;5020105;28;45520;-59
2022/03/28 09:03:16;;;;;;;;;56.50;45.25;;;;;16.59;46.32;101493.69;5029206;28;45371;-59
2022/03/28 09:05:47;;;;;;;;;55.00;44.00;;;;;16.59;45.96;101493.69;5016442;28;51263;-59
2022/03/28 09:08:12;;;;;;;;;50.50;41.75;;;;;16.62;45.96;101493.53;5015632;28;45487;-60
2022/03/28 09:10:43;;;;;;;;;51.75;43.00;;;;;16.66;45.19;101495.13;5016170;28;45374;-59
2022/03/28 09:13:11;;;;;;;;;55.50;40.50;;;;;16.68;45.55;101496.75;5019690;28;45486;-58
2022/03/28 09:15:53;;;;;;;;;53.75;43.25;;;;;16.70;45.08;101500.19;5029656;28;46161;-60
2022/03/28 09:18:29;;;;;;;;;49.75;41.00;;;;;16.73;45.36;101497.41;5016386;28;45599;-59
2022/03/28 09:21:00;;;;;;;;;55.25;44.50;;;;;16.75;45.17;101495.53;5029847;28;45570;-60
2022/03/28 09:23:25;;;;;;;;;54.50;42.75;;;;;16.77;44.59;101493.72;5016148;28;45367;-59
2022/03/28 09:25:51;;;;;;;;;50.25;42.50;;;;;16.79;44.25;101496.28;5019971;28;46075;-60
2022/03/28 09:28:24;;;;;;;;;53.25;43.25;;;;;16.82;44.04;101492.63;5016213;28;45603;-61
2022/03/28 09:30:49;;;;;;;;;52.00;43.50;;;;;16.80;44.43;101486.53;5020036;28;45407;-61
2022/03/28 09:33:17;;;;;;;;;57.50;46.75;;;;;16.78;44.01;101475.97;5016123;28;45416;-61
2022/03/28 09:35:46;;;;;;;;;53.00;44.00;;;;;16.90;44.83;101494.00;5016519;28;46022;-60
2022/03/28 09:38:13;;;;;;;;;54.00;45.50;;;;;16.95;44.25;101483.13;5015500;28;45424;-60
2022/03/28 09:40:45;;;;;;;;;48.00;39.25;;;;;17.00;44.15;101489.09;5023653;28;45672;-60
2022/03/28 09:43:22;;;;;;;;;45.75;39.25;;;;;17.00;43.91;101474.00;5018486;28;45524;-59
2022/03/28 09:45:51;;;;;;;;;48.50;40.25;;;;;17.12;44.00;101482.34;5015732;28;45620;-60
2022/03/28 09:48:19;;;;;;;;;50.00;41.50;;;;;17.16;43.97;101483.91;5015968;28;45434;-59
2022/03/28 09:50:55;;;;;;;;;49.50;41.50;;;;;17.20;43.84;101475.72;5021610;28;45474;-60
2022/03/28 09:53:27;;;;;;;;;43.00;36.33;;;;;17.25;43.65;101478.16;5027211;28;45474;-59
2022/03/28 09:55:59;;;;;;;;;56.00;45.25;;;;;17.29;42.11;101470.88;5028876;28;45590;-61
2022/03/28 09:58:42;;;;;;;;;43.75;36.25;;;;;17.32;42.30;101470.72;5015545;28;45514;-59
2022/03/28 10:01:19;;;;;;;;;47.75;39.00;;;;;17.35;42.32;101465.25;5023862;28;45553;-61
2022/03/28 10:03:53;;;;;;;;;39.00;34.33;;;;;17.37;41.58;101460.72;5032995;28;45396;-62
2022/03/28 10:06:20;;;;;;;;;53.25;44.25;;;;;17.41;41.55;101460.50;5018911;28;46258;-62
2022/03/28 10:08:47;;;;;;;;;48.00;39.00;;;;;17.34;41.56;101443.13;5025620;28;45591;-64
2022/03/28 10:11:14;;;;;;;;;50.75;41.75;;;;;17.48;41.30;101460.19;5023804;28;45455;-61
2022/03/28 10:13:39;;;;;;;;;33.33;29.33;;;;;17.54;41.14;101454.53;5016669;28;45625;-60
2022/03/28 10:16:06;;;;;;;;;38.67;34.00;;;;;17.57;40.79;101454.38;5028389;28;46867;-59
2022/03/28 10:18:37;;;;;;;;;38.33;33.67;;;;;17.64;41.09;101450.47;5028825;28;45410;-60
2022/03/28 10:21:07;;;;;;;;;43.00;34.00;;;;;17.71;39.88;101441.25;5028827;28;45700;-60
2022/03/28 10:23:44;;;;;;;;;44.33;34.00;;;;;17.80;40.01;101446.13;5034993;28;45478;-61
2022/03/28 10:26:11;;;;;;;;;43.33;36.67;;;;;17.88;39.39;101437.72;5034338;28;46391;-63
2022/03/28 10:28:38;;;;;;;;;37.33;34.00;;;;;18.07;39.48;101437.63;5034799;28;45460;-60
2022/03/28 10:31:17;;;;;;;;;40.00;34.00;;;;;18.27;39.30;101432.09;5032606;28;45466;-60
2022/03/28 10:33:47;;;;;;;;;38.33;33.67;;;;;18.50;38.32;101425.50;5016600;28;45545;-59
2022/03/28 10:36:30;;;;;;;;;43.67;36.33;;;;;18.66;37.94;101419.31;5029408;28;46273;-61
2022/03/28 10:39:34;;;;;;;;;37.67;32.67;;;;;18.72;38.33;101414.47;5014894;28;45448;-61
2022/03/28 10:42:24;;;;;;;;;44.67;33.67;;;;;18.72;38.69;101405.63;5013642;28;45550;-59
2022/03/28 10:45:11;;;;;;;;;35.33;32.33;;;;;18.67;38.08;101400.59;5015076;28;45477;-59
2022/03/28 10:47:43;;;;;;;;;38.67;33.33;;;;;18.67;37.50;101402.38;5017914;28;46368;-60
2022/03/28 10:50:16;;;;;;;;;35.00;32.33;;;;;18.62;37.69;101402.66;5029370;28;45402;-59
2022/03/28 10:53:15;;;;;;;;;41.33;34.33;;;;;18.60;37.58;101395.69;5032456;28;45537;-60
2022/03/28 10:55:45;;;;;;;;;48.33;38.67;;;;;18.57;36.92;101391.41;5012744;28;45435;-59
2022/03/28 10:58:14;;;;;;;;;48.00;37.67;;;;;18.55;36.89;101387.94;5034754;28;45681;-60
2022/03/28 11:01:33;;;;;;;;;46.67;35.00;;;;;18.54;37.61;101389.75;5018824;28;45518;-60
2022/03/28 11:04:15;;;;;;;;;34.00;31.00;;;;;18.54;37.91;101378.25;5008999;28;45523;-59
2022/03/28 11:06:59;;;;;;;;;40.67;34.67;;;;;18.56;37.35;101379.00;4999093;28;45366;-60
2022/03/28 11:09:51;;;;;;;;;36.00;32.67;;;;;18.57;37.67;101364.75;4980564;28;46395;-60
2022/03/28 11:12:27;;;;;;;;;27.00;26.67;;;;;18.59;36.91;101357.53;5002188;28;45534;-61
2022/03/28 11:15:18;;;;;;;;;37.67;34.00;;;;;18.60;35.65;101353.91;4997096;28;45397;-61